Airfield :
LOGIN :

Register | Disclaimer

   EN    FR    IT 

 










Legend :    VFR   Marginal VFR   IFR   Intensive IFR   Very Intensive IFR
Visi :
Ceiling :
>= 8 km
>= 3000ft
5 to 8 km
1000 to 3000 ft
1500m to 5 km
500 to 1000 ft
800 to 1500m
200 to 500 ft
< 800m
< 200 ft
Symbols :   Thunderstorms  Fog  Heavy snow  Heavy precipitations  Wind > 20 kt
SIGMETs :     Misc.  Thunderstorms  Icing  Turbulence  Mountain Waves  Volcanic Ashes







- Airport Elevation : 266 ft
- IATA code : NCL
- Download approach charts


EGNT - Newcastle

CURRENT METAR :
  • 141450Z 24005KT 9999 VCSH SCT020 02/02 Q0979

EXPIRED METARs :
  • 141420Z 23006KT 9999 -RA BKN020 02/02 Q0979
  • 141350Z 24007KT 9999 -RA SCT010 BKN025 03/02 Q0980
  • 141320Z 24007KT 9999 -RA SCT024 BKN031 03/02 Q0980
  • 141250Z 24006KT 200V260 9999 SCT013 BKN021 03/02 Q0980
  • 141220Z 22005KT 9999 -RA BKN017 BKN035 04/02 Q0980

TAF TAF EGNT
Valid from the 14 at 12:00 until the 15 at 12:00 UTC


141101Z 1412/1512 24010KT 9999 SCT025
TEMPO 1412/1417 8000 -SHRA BKN012
BECMG 1418/1421 30008KT
TEMPO 1422/1506 4000 -SHRASN SHRAGS BKN007CB
TEMPO 1506/1512 7000 SHRA BKN009
ATIS : +44 191 214 3400
No reported NOTAMs for that airfield.



MET'MAP, your aeronautical weather chart ! - Copyright ORBIFLY December 2007 - Disclaimer

ORBIFLY MET'MAP TEAM :

Programming & Development : Alexandra Zaïnal
Concept & Development : Baudouin d'Aumeries
Co-Development & Prog : Marc-Olivier Méhu
Technical & hardware support : Manuel Goepfert

Contact : metmap@orbifly.com




SOURCES & CREDITS :

   NOAA